TimeIST,TemperatureF,Dew PointF,Humidity,Sea Level PressureIn,VisibilityMPH,Wind Direction,Wind SpeedMPH,Gust SpeedMPH,PrecipitationIn,Events,Conditions,WindDirDegrees,DateUTC
12:00 AM,41.0,41.0,100,30.01,0.2,WNW,2.3,-,N/A,Fog,Fog,290,2013-01-04 18:30:00
12:30 AM,41.0,41.0,100,29.98,0.1,West,3.5,-,N/A,Fog,Fog,260,2013-01-04 19:00:00
1:30 AM,39.2,39.2,100,29.98,0.1,West,3.5,-,N/A,Fog,Fog,260,2013-01-04 20:00:00
2:00 AM,39.2,39.2,100,29.98,-9999.0,West,3.5,-,N/A,Fog,Fog,270,2013-01-04 20:30:00
2:30 AM,37.4,37.4,100,29.98,-9999.0,WSW,4.6,-,N/A,Fog,Fog,250,2013-01-04 21:00:00
3:00 AM,35.6,35.6,100,29.98,-9999.0,SW,5.8,-,N/A,Fog,Fog,230,2013-01-04 21:30:00
3:30 AM,37.4,37.4,100,29.95,-9999.0,West,5.8,-,N/A,Fog,Fog,260,2013-01-04 22:00:00
4:00 AM,39.2,39.2,100,29.95,-9999.0,West,4.6,-,N/A,Fog,Fog,270,2013-01-04 22:30:00
4:30 AM,39.2,39.2,100,29.95,-9999.0,WNW,4.6,-,N/A,Fog,Fog,300,2013-01-04 23:00:00
5:00 AM,39.2,39.2,100,29.95,-9999.0,West,4.6,-,N/A,Fog,Fog,270,2013-01-04 23:30:00
5:30 AM,41.0,41.0,100,29.95,0.2,WNW,6.9,-,N/A,Fog,Fog,300,2013-01-05 00:00:00
6:00 AM,41.0,41.0,100,29.95,0.2,WNW,6.9,-,N/A,Fog,Fog,300,2013-01-05 00:30:00
6:30 AM,41.0,41.0,100,29.95,0.4,WNW,5.8,-,N/A,Fog,Shallow Fog,300,2013-01-05 01:00:00
7:30 AM,41.0,41.0,100,29.98,0.6,WNW,6.9,-,N/A,Fog,Shallow Fog,300,2013-01-05 02:00:00
8:00 AM,41.0,41.0,100,29.98,0.7,NW,5.8,-,N/A,,Partly Cloudy,310,2013-01-05 02:30:00
8:30 AM,41.0,41.0,100,29.98,0.7,West,6.9,-,N/A,,Partly Cloudy,270,2013-01-05 03:00:00
9:00 AM,41.0,41.0,100,29.98,0.7,West,6.9,-,N/A,,Partly Cloudy,270,2013-01-05 03:30:00
10:00 AM,42.8,42.8,100,30.04,1.0,West,4.6,-,N/A,,Partly Cloudy,260,2013-01-05 04:30:00
10:30 AM,42.8,42.8,100,30.04,1.0,West,4.6,-,N/A,,Partly Cloudy,270,2013-01-05 05:00:00
11:00 AM,44.6,42.8,93,30.04,1.0,West,4.6,-,N/A,,Partly Cloudy,280,2013-01-05 05:30:00
11:30 AM,44.6,42.8,93,30.04,1.0,West,5.8,-,N/A,,Partly Cloudy,270,2013-01-05 06:00:00
12:00 PM,44.6,42.8,93,30.04,1.0,WNW,6.9,-,N/A,,Partly Cloudy,290,2013-01-05 06:30:00
12:30 PM,46.4,44.6,93,30.01,1.0,West,8.1,-,N/A,,Partly Cloudy,270,2013-01-05 07:00:00
1:00 PM,46.4,44.6,93,29.98,1.0,NW,8.1,-,N/A,,Partly Cloudy,320,2013-01-05 07:30:00
2:00 PM,48.2,46.4,93,29.98,0.9,NW,5.8,-,N/A,,Partly Cloudy,310,2013-01-05 08:30:00
2:30 PM,50.0,48.2,94,29.95,0.9,WNW,4.6,-,N/A,,Partly Cloudy,290,2013-01-05 09:00:00
3:00 PM,50.0,46.4,87,29.95,0.9,WNW,6.9,-,N/A,,Partly Cloudy,290,2013-01-05 09:30:00
3:30 PM,51.8,44.6,76,29.95,1.1,NW,5.8,-,N/A,,Partly Cloudy,310,2013-01-05 10:00:00
4:00 PM,51.8,44.6,76,29.95,1.0,NW,5.8,-,N/A,,Partly Cloudy,320,2013-01-05 10:30:00
4:30 PM,50.0,44.6,82,29.95,1.0,NW,6.9,-,N/A,,Partly Cloudy,320,2013-01-05 11:00:00
5:30 PM,48.2,44.6,87,29.95,0.9,NW,5.8,-,N/A,,Mist,310,2013-01-05 12:00:00
6:00 PM,46.4,46.4,100,29.98,0.9,North,5.8,-,N/A,,Mist,350,2013-01-05 12:30:00
6:30 PM,46.4,46.4,100,29.98,0.9,NW,4.6,-,N/A,,Mist,320,2013-01-05 13:00:00
7:00 PM,44.6,44.6,100,29.98,0.7,NW,4.6,-,N/A,,Mist,310,2013-01-05 13:30:00
7:30 PM,44.6,44.6,100,29.98,0.7,WNW,4.6,-,N/A,,Mist,300,2013-01-05 14:00:00
8:00 PM,44.6,44.6,100,29.98,0.6,WNW,3.5,-,N/A,Fog,Shallow Fog,290,2013-01-05 14:30:00
9:00 PM,42.8,42.8,100,29.98,0.4,NNW,3.5,-,N/A,Fog,Shallow Fog,340,2013-01-05 15:30:00
9:30 PM,41.0,41.0,100,30.01,0.4,NW,5.8,-,N/A,Fog,Shallow Fog,310,2013-01-05 16:00:00
10:00 PM,41.0,41.0,100,30.01,0.4,NW,4.6,-,N/A,Fog,Shallow Fog,320,2013-01-05 16:30:00
10:30 PM,41.0,41.0,100,30.01,0.4,North,2.3,-,N/A,Fog,Shallow Fog,350,2013-01-05 17:00:00
11:00 PM,41.0,41.0,100,30.01,0.3,NNW,2.3,-,N/A,Fog,Fog,330,2013-01-05 17:30:00
11:30 PM,41.0,41.0,100,30.01,0.2,NNW,3.5,-,N/A,Fog,Fog,330,2013-01-05 18:00:00